createdAt,value
2022-09-28T00:00:14.904Z,79.37
2022-09-28T00:02:17.827Z,79.18
2022-09-28T00:04:22.429Z,79.77
2022-09-28T00:06:27.886Z,79.47
2022-09-28T00:08:30.797Z,78.94
2022-09-28T00:10:33.582Z,79.58
2022-09-28T00:12:36.475Z,79.82
2022-09-28T00:14:40.459Z,79.46
2022-09-28T00:16:44.991Z,79.73
2022-09-28T00:18:50.036Z,80.15
2022-09-28T00:21:02.516Z,80.25
2022-09-28T00:23:05.457Z,79.70
2022-09-28T00:25:09.544Z,79.91
2022-09-28T00:27:12.469Z,80.54
2022-09-28T00:29:21.697Z,80.10
2022-09-28T00:31:25.164Z,80.45
2022-09-28T00:33:28.040Z,79.88
2022-09-28T00:35:30.952Z,80.31
2022-09-28T00:37:35.073Z,79.66
2022-09-28T00:39:41.165Z,79.89
2022-09-28T00:41:44.590Z,79.66
2022-09-28T00:43:47.427Z,80.37
2022-09-28T00:45:56.718Z,79.96
2022-09-28T00:48:00.495Z,80.34
2022-09-28T00:50:07.757Z,80.31
2022-09-28T00:52:14.319Z,80.19
2022-09-28T00:54:18.554Z,80.05
2022-09-28T00:56:24.926Z,80.65
2022-09-28T00:58:32.438Z,80.45
2022-09-28T01:00:35.166Z,80.61
2022-09-28T01:02:37.961Z,81.35
2022-09-28T01:04:40.952Z,81.50
2022-09-28T01:06:46.452Z,81.10
2022-09-28T01:08:52.412Z,81.39
2022-09-28T01:10:57.109Z,81.41
2022-09-28T01:12:59.931Z,81.22
2022-09-28T01:15:03.828Z,80.90
2022-09-28T01:17:11.972Z,81.19
2022-09-28T01:19:48.705Z,80.94
2022-09-28T01:21:54.919Z,81.28
2022-09-28T01:24:15.071Z,81.55
2022-09-28T01:26:45.192Z,81.65
2022-09-28T01:28:54.392Z,82.25
2022-09-28T01:31:06.623Z,82.49
2022-09-28T01:33:13.534Z,81.64
2022-09-28T01:35:21.569Z,80.90
2022-09-28T01:37:32.036Z,81.55
2022-09-28T01:39:38.658Z,81.82
2022-09-28T01:41:47.059Z,81.36
2022-09-28T01:43:55.523Z,81.75
2022-09-28T01:46:02.368Z,82.12
2022-09-28T01:48:08.793Z,82.24
2022-09-28T01:50:15.605Z,82.15
2022-09-28T01:52:24.926Z,81.60
2022-09-28T01:54:31.975Z,81.81
2022-09-28T01:56:46.820Z,81.53
2022-09-28T01:58:55.485Z,81.77
2022-09-28T02:01:03.583Z,82.23
2022-09-28T02:03:12.407Z,81.75
2022-09-28T02:05:24.206Z,81.18
2022-09-28T02:07:32.983Z,81.19
2022-09-28T02:09:41.019Z,81.61
2022-09-28T02:11:50.355Z,81.15
2022-09-28T02:13:59.645Z,81.71
2022-09-28T02:16:06.201Z,81.47
2022-09-28T02:18:10.985Z,81.11
2022-09-28T02:20:14.533Z,81.76
2022-09-28T02:22:25.927Z,81.76
2022-09-28T02:24:37.826Z,81.57
2022-09-28T02:26:44.573Z,81.33
2022-09-28T02:28:48.662Z,81.97
2022-09-28T02:30:51.500Z,81.53
2022-09-28T02:32:57.833Z,81.01
2022-09-28T02:35:00.796Z,81.36
2022-09-28T02:37:04.198Z,81.46
2022-09-28T02:39:13.814Z,81.41
2022-09-28T02:41:27.877Z,80.96
2022-09-28T02:43:39.023Z,81.08
2022-09-28T02:45:56.541Z,81.57
2022-09-28T02:48:13.784Z,81.60
2022-09-28T02:50:23.585Z,82.25
2022-09-28T02:52:45.662Z,82.12
2022-09-28T02:55:11.480Z,81.88
2022-09-28T02:57:19.628Z,82.21
2022-09-28T02:59:35.879Z,82.33
2022-09-28T03:01:46.589Z,81.45
2022-09-28T03:03:55.343Z,82.01
2022-09-28T03:06:03.240Z,81.66
2022-09-28T03:08:22.017Z,81.22
2022-09-28T03:10:29.177Z,81.27
2022-09-28T03:12:33.217Z,81.33
2022-09-28T03:14:36.655Z,81.51
2022-09-28T03:16:44.231Z,81.18
2022-09-28T03:18:47.637Z,81.44
2022-09-28T03:20:50.606Z,81.30
2022-09-28T03:23:12.724Z,80.77
2022-09-28T03:25:16.711Z,81.40
2022-09-28T03:27:19.626Z,79.85
2022-09-28T03:29:22.394Z,79.46
2022-09-28T03:31:31.430Z,79.67
2022-09-28T03:33:35.919Z,80.69
2022-09-28T03:35:38.655Z,80.23
2022-09-28T03:37:41.419Z,79.55
2022-09-28T03:39:44.200Z,79.98
2022-09-28T03:41:47.652Z,80.04
2022-09-28T03:43:50.615Z,79.96
2022-09-28T03:45:55.131Z,79.64
2022-09-28T03:47:58.204Z,80.02
2022-09-28T03:50:02.395Z,80.07
2022-09-28T03:52:06.013Z,80.74
2022-09-28T03:54:08.770Z,80.31
2022-09-28T03:56:14.666Z,80.46
2022-09-28T03:58:17.906Z,80.00
2022-09-28T04:00:20.985Z,80.13
2022-09-28T04:02:24.344Z,79.73
2022-09-28T04:04:27.325Z,80.09
2022-09-28T04:06:31.421Z,80.28
2022-09-28T04:08:34.606Z,80.01
2022-09-28T04:10:37.359Z,79.22
2022-09-28T04:12:40.096Z,79.70
2022-09-28T04:14:42.998Z,80.04
2022-09-28T04:16:48.019Z,79.91
2022-09-28T04:18:51.973Z,80.07
2022-09-28T04:21:24.684Z,79.67
2022-09-28T04:23:39.353Z,80.12
2022-09-28T04:25:42.092Z,80.10
2022-09-28T04:28:02.670Z,80.01
2022-09-28T04:30:06.304Z,80.29
2022-09-28T04:32:11.407Z,80.24
2022-09-28T04:34:18.363Z,80.11
2022-09-28T04:36:21.179Z,79.72
2022-09-28T04:38:48.463Z,80.03
2022-09-28T04:40:51.239Z,80.36
2022-09-28T04:42:55.417Z,80.42
2022-09-28T04:44:58.783Z,80.53
2022-09-28T04:47:04.929Z,80.44
2022-09-28T04:49:09.942Z,80.00
2022-09-28T04:51:38.977Z,80.16
2022-09-28T04:53:41.756Z,79.88
2022-09-28T04:55:44.787Z,80.02
2022-09-28T04:57:48.942Z,79.92
2022-09-28T04:59:51.718Z,80.69
2022-09-28T05:01:54.626Z,80.77
2022-09-28T05:04:00.228Z,79.95
2022-09-28T05:06:15.168Z,80.72
2022-09-28T05:08:20.473Z,80.19
2022-09-28T05:10:23.406Z,80.42
2022-09-28T05:12:26.370Z,80.12
2022-09-28T05:14:30.516Z,80.09
2022-09-28T05:16:34.127Z,79.71
2022-09-28T05:18:56.492Z,80.33
2022-09-28T05:20:59.330Z,79.99
2022-09-28T05:23:02.525Z,80.07
2022-09-28T05:25:05.927Z,79.88
2022-09-28T05:27:19.631Z,80.33
2022-09-28T05:29:32.720Z,79.63
2022-09-28T05:32:14.289Z,79.84
2022-09-28T05:34:34.664Z,80.05
2022-09-28T05:36:39.122Z,79.48
2022-09-28T05:38:41.957Z,79.94
2022-09-28T05:40:45.151Z,80.07
2022-09-28T05:42:48.000Z,80.04
2022-09-28T05:44:53.104Z,80.07
2022-09-28T05:46:55.883Z,79.52
2022-09-28T05:48:59.829Z,79.41
2022-09-28T05:51:04.509Z,79.43
2022-09-28T05:53:09.344Z,79.89
2022-09-28T05:55:13.240Z,80.01
2022-09-28T05:57:17.601Z,79.76
2022-09-28T05:59:20.394Z,80.04
2022-09-28T06:01:24.593Z,80.26
2022-09-28T06:03:28.349Z,79.77
2022-09-28T06:05:31.754Z,80.58
2022-09-28T06:07:34.521Z,80.48
2022-09-28T06:09:37.434Z,80.30
2022-09-28T06:12:08.499Z,79.87
2022-09-28T06:14:21.170Z,79.65
2022-09-28T06:16:25.680Z,79.66
2022-09-28T06:18:28.930Z,79.62
2022-09-28T06:20:50.646Z,79.67
2022-09-28T06:22:55.612Z,79.88
2022-09-28T06:24:58.388Z,79.03
2022-09-28T06:27:01.317Z,79.38
2022-09-28T06:29:04.294Z,79.44
2022-09-28T06:31:07.244Z,80.28
2022-09-28T06:33:18.626Z,80.38
2022-09-28T06:35:22.528Z,79.61
2022-09-28T06:37:27.626Z,80.33
2022-09-28T06:39:31.399Z,80.73
2022-09-28T06:41:34.426Z,80.02
2022-09-28T06:43:48.871Z,79.60
2022-09-28T06:46:11.192Z,79.67
2022-09-28T06:48:27.489Z,80.01
2022-09-28T06:50:33.178Z,79.57
2022-09-28T06:53:02.637Z,79.19
2022-09-28T06:55:42.065Z,79.66
2022-09-28T06:57:44.874Z,78.79
2022-09-28T06:59:47.879Z,78.36
2022-09-28T07:01:50.987Z,79.32
2022-09-28T07:04:34.084Z,78.68
2022-09-28T07:07:15.493Z,78.57
2022-09-28T07:09:31.627Z,78.50
2022-09-28T07:11:53.941Z,78.57
2022-09-28T07:14:32.365Z,78.99
2022-09-28T07:17:06.424Z,78.91
2022-09-28T07:19:03.794Z,78.43
2022-09-28T07:21:11.131Z,78.08
2022-09-28T07:23:20.065Z,78.01
2022-09-28T07:25:55.647Z,78.09
2022-09-28T07:28:06.404Z,77.72
2022-09-28T07:30:34.617Z,77.49
2022-09-28T07:32:51.660Z,78.21
2022-09-28T07:35:07.977Z,77.32
2022-09-28T07:37:24.148Z,77.56
2022-09-28T07:39:27.101Z,77.33
2022-09-28T07:41:32.523Z,76.18
2022-09-28T07:43:36.787Z,76.35
2022-09-28T07:45:39.940Z,77.05
2022-09-28T07:47:43.711Z,76.74
2022-09-28T07:50:03.618Z,76.20
2022-09-28T07:52:28.512Z,76.25
2022-09-28T07:54:43.164Z,75.55
2022-09-28T07:56:58.311Z,74.85
2022-09-28T07:59:31.651Z,75.54
2022-09-28T08:01:52.967Z,75.44
2022-09-28T08:03:56.576Z,74.29
2022-09-28T08:06:00.263Z,74.65
2022-09-28T08:08:04.567Z,74.60
2022-09-28T08:10:08.530Z,74.42
2022-09-28T08:12:31.266Z,73.35
2022-09-28T08:15:03.589Z,72.83
2022-09-28T08:17:18.886Z,72.22
2022-09-28T08:19:48.271Z,72.24
2022-09-28T08:21:50.350Z,72.17
2022-09-28T08:23:55.118Z,71.05
2022-09-28T08:25:58.078Z,71.27
2022-09-28T08:28:01.043Z,71.56
2022-09-28T08:30:07.421Z,72.00
2022-09-28T08:32:26.636Z,72.59
2022-09-28T08:34:47.943Z,71.63
2022-09-28T08:37:14.381Z,71.68
2022-09-28T08:39:37.377Z,70.59
2022-09-28T08:42:03.923Z,71.17
2022-09-28T08:44:24.020Z,71.35
2022-09-28T08:46:49.014Z,70.64
2022-09-28T08:49:25.001Z,70.18
2022-09-28T08:51:55.639Z,69.49
2022-09-28T08:54:45.036Z,69.15
2022-09-28T08:57:00.065Z,69.61
2022-09-28T08:59:09.780Z,68.67
2022-09-28T09:01:18.399Z,68.91
2022-09-28T09:03:24.484Z,68.34
2022-09-28T09:05:58.058Z,68.08
2022-09-28T09:08:31.518Z,67.57
2022-09-28T09:10:50.349Z,65.88
2022-09-28T09:13:04.463Z,66.67
2022-09-28T09:15:18.320Z,67.15
2022-09-28T09:17:29.361Z,67.73
2022-09-28T09:20:07.384Z,66.82
2022-09-28T09:22:40.687Z,66.74
2022-09-28T09:24:51.071Z,66.91
2022-09-28T09:27:07.420Z,66.17
2022-09-28T09:29:27.945Z,65.64
2022-09-28T09:31:46.640Z,65.06
2022-09-28T09:34:16.532Z,63.74
2022-09-28T09:36:36.496Z,63.88
2022-09-28T09:39:19.484Z,63.71
2022-09-28T09:42:12.892Z,63.46
2022-09-28T09:44:56.558Z,62.68
2022-09-28T09:47:22.061Z,62.67
2022-09-28T09:49:37.062Z,62.69
2022-09-28T09:51:47.242Z,63.16
2022-09-28T09:53:55.414Z,62.50
2022-09-28T09:56:07.740Z,63.34
2022-09-28T09:58:23.464Z,62.82
2022-09-28T10:00:37.221Z,62.57
2022-09-28T10:02:52.843Z,61.34
2022-09-28T10:05:21.196Z,60.36
2022-09-28T10:07:27.058Z,60.29
2022-09-28T10:09:35.670Z,60.08
2022-09-28T10:11:55.223Z,61.21
2022-09-28T10:13:59.411Z,61.46
2022-09-28T10:16:14.627Z,61.42
2022-09-28T10:18:30.122Z,60.13
2022-09-28T10:20:45.960Z,60.62
2022-09-28T10:22:58.040Z,60.91
2022-09-28T10:25:02.458Z,60.90
2022-09-28T10:27:08.793Z,61.18
2022-09-28T10:29:17.662Z,60.52
2022-09-28T10:31:42.105Z,61.44
2022-09-28T10:33:54.395Z,60.93
2022-09-28T10:35:57.774Z,59.92
2022-09-28T10:38:05.410Z,60.21
2022-09-28T10:40:41.637Z,60.13
2022-09-28T10:42:44.577Z,59.88
2022-09-28T10:44:56.032Z,59.60
2022-09-28T10:47:15.373Z,58.57
2022-09-28T10:49:19.179Z,59.13
2022-09-28T10:51:42.591Z,58.14
2022-09-28T10:54:01.365Z,56.97
2022-09-28T10:56:22.919Z,57.36
2022-09-28T10:58:39.288Z,57.65
2022-09-28T11:00:45.649Z,58.34
2022-09-28T11:02:53.266Z,55.56
2022-09-28T11:05:01.021Z,55.01
2022-09-28T11:07:17.811Z,55.87
2022-09-28T11:09:30.545Z,55.92
2022-09-28T11:11:41.748Z,56.27
2022-09-28T11:13:47.834Z,54.69
2022-09-28T11:15:57.290Z,54.44
2022-09-28T11:18:22.398Z,54.45
2022-09-28T11:20:35.893Z,54.97
2022-09-28T11:22:44.233Z,53.34
2022-09-28T11:24:48.281Z,53.69
2022-09-28T11:26:53.396Z,53.96
2022-09-28T11:29:00.175Z,54.62
2022-09-28T11:31:29.493Z,53.30
2022-09-28T11:33:41.114Z,54.47
2022-09-28T11:36:17.419Z,54.28
2022-09-28T11:38:33.971Z,54.28
2022-09-28T11:41:24.173Z,55.02
2022-09-28T11:43:37.343Z,54.31
2022-09-28T11:45:52.939Z,54.29
2022-09-28T11:48:00.546Z,53.95
2022-09-28T11:50:14.182Z,54.98
2022-09-28T11:52:23.646Z,54.31
2022-09-28T11:54:32.803Z,53.84
2022-09-28T11:56:40.990Z,54.25
2022-09-28T11:58:47.936Z,54.01
2022-09-28T12:01:00.391Z,53.85
2022-09-28T12:03:19.425Z,53.63
2022-09-28T12:05:27.810Z,53.53
2022-09-28T12:07:33.663Z,52.87
2022-09-28T12:09:44.265Z,53.34
2022-09-28T12:11:59.016Z,52.73
2022-09-28T12:14:22.479Z,53.23
2022-09-28T12:18:57.389Z,52.10
2022-09-28T12:21:19.711Z,52.39
2022-09-28T12:23:29.426Z,53.10
2022-09-28T12:25:40.412Z,52.40
2022-09-28T12:27:50.556Z,51.33
2022-09-28T12:29:58.005Z,52.61
2022-09-28T12:32:11.262Z,52.21
2022-09-28T12:34:15.461Z,53.16
2022-09-28T12:36:31.556Z,52.89
2022-09-28T12:39:17.708Z,53.41
2022-09-28T12:41:31.238Z,53.77
2022-09-28T12:44:00.490Z,53.13
2022-09-28T12:46:20.656Z,53.46
2022-09-28T12:48:56.672Z,53.66
2022-09-28T12:51:22.895Z,53.91
2022-09-28T12:53:49.914Z,52.76
2022-09-28T12:55:59.935Z,53.48
2022-09-28T12:58:15.142Z,53.41
2022-09-28T13:00:22.157Z,53.72
2022-09-28T13:02:52.259Z,53.32
2022-09-28T13:05:08.730Z,53.14
2022-09-28T13:07:21.462Z,53.36
2022-09-28T13:09:39.781Z,51.83
2022-09-28T13:11:51.850Z,51.75
2022-09-28T13:14:05.236Z,52.65
2022-09-28T13:16:17.363Z,51.41
2022-09-28T13:18:27.143Z,52.15
2022-09-28T13:20:40.147Z,51.79
2022-09-28T13:22:54.991Z,53.16
2022-09-28T13:25:02.883Z,53.27
2022-09-28T13:27:11.346Z,53.23
2022-09-28T13:29:16.938Z,53.37
2022-09-28T13:31:25.792Z,51.57
2022-09-28T13:33:36.739Z,51.37
2022-09-28T13:35:43.548Z,50.29
2022-09-28T13:37:48.716Z,51.19
2022-09-28T13:39:53.186Z,51.74
2022-09-28T13:41:55.991Z,51.14
2022-09-28T13:44:38.563Z,50.26
2022-09-28T13:46:51.597Z,49.49
2022-09-28T13:49:02.133Z,51.10
2022-09-28T13:51:18.661Z,51.86
2022-09-28T13:53:34.586Z,51.53
2022-09-28T13:55:53.862Z,51.44
2022-09-28T13:58:01.809Z,51.20
2022-09-28T14:00:16.317Z,52.09
2022-09-28T14:02:29.774Z,51.18
2022-09-28T14:04:55.366Z,49.93
2022-09-28T14:07:10.009Z,49.27
2022-09-28T14:09:40.862Z,50.63
2022-09-28T14:11:54.354Z,51.09
2022-09-28T14:14:03.351Z,51.59
2022-09-28T14:16:22.026Z,50.81
2022-09-28T14:18:31.242Z,50.90
2022-09-28T14:20:36.313Z,49.45
2022-09-28T14:22:54.619Z,50.58
2022-09-28T14:25:12.234Z,50.78
2022-09-28T14:27:40.205Z,51.46
2022-09-28T14:29:43.000Z,51.75
2022-09-28T14:31:45.859Z,53.07
2022-09-28T14:33:57.840Z,53.07
2022-09-28T14:36:04.280Z,51.46
2022-09-28T14:38:32.833Z,53.04
2022-09-28T14:41:12.568Z,53.24
2022-09-28T14:43:25.978Z,52.66
2022-09-28T14:45:38.284Z,51.99
2022-09-28T14:47:43.457Z,52.26
2022-09-28T14:50:01.039Z,50.62
2022-09-28T14:52:04.723Z,51.14
2022-09-28T14:54:17.023Z,50.76
2022-09-28T14:56:22.115Z,50.18
2022-09-28T14:58:27.416Z,49.22
2022-09-28T15:00:31.918Z,49.99
2022-09-28T15:02:38.534Z,49.92
2022-09-28T15:04:45.125Z,50.47
2022-09-28T15:06:49.765Z,50.79
2022-09-28T15:08:53.748Z,50.00
2022-09-28T15:11:00.748Z,51.07
2022-09-28T15:13:08.266Z,50.73
2022-09-28T15:15:26.566Z,49.24
2022-09-28T15:17:38.537Z,48.61
2022-09-28T15:19:50.077Z,50.92
2022-09-28T15:21:52.914Z,51.23
2022-09-28T15:23:55.708Z,51.35
2022-09-28T15:25:58.571Z,52.21
2022-09-28T15:28:12.515Z,52.16
2022-09-28T15:30:23.374Z,52.25
2022-09-28T15:32:26.452Z,51.79
2022-09-28T15:34:48.701Z,52.50
2022-09-28T15:36:55.157Z,52.14
2022-09-28T15:39:00.970Z,52.74
2022-09-28T15:41:06.285Z,52.32
2022-09-28T15:43:26.724Z,51.79
2022-09-28T15:45:37.995Z,51.78
2022-09-28T15:47:43.539Z,51.82
2022-09-28T15:49:57.064Z,52.37
2022-09-28T15:52:03.025Z,51.55
2022-09-28T15:54:19.645Z,52.57
2022-09-28T15:56:23.205Z,52.29
2022-09-28T15:58:26.452Z,52.49
2022-09-28T16:00:31.609Z,53.03
2022-09-28T16:02:36.439Z,55.32
2022-09-28T16:04:44.271Z,55.68
2022-09-28T16:07:06.626Z,56.22
2022-09-28T16:09:36.103Z,55.30
2022-09-28T16:11:43.353Z,56.00
2022-09-28T16:13:55.382Z,55.96
2022-09-28T16:16:00.174Z,56.04
2022-09-28T16:18:07.413Z,56.02
2022-09-28T16:20:24.532Z,57.00
2022-09-28T16:22:28.889Z,57.17
2022-09-28T16:24:35.014Z,58.75
2022-09-28T16:26:39.121Z,58.96
2022-09-28T16:28:51.823Z,57.82
2022-09-28T16:31:02.873Z,58.23
2022-09-28T16:33:28.211Z,57.13
2022-09-28T16:35:33.152Z,57.42
2022-09-28T16:37:36.150Z,56.86
2022-09-28T16:39:38.949Z,56.34
2022-09-28T16:41:44.779Z,56.47
2022-09-28T16:43:48.245Z,56.36
2022-09-28T16:45:51.015Z,56.50
2022-09-28T16:47:56.926Z,56.42
2022-09-28T16:50:01.315Z,56.85
2022-09-28T16:52:04.037Z,57.10
2022-09-28T16:54:32.568Z,57.54
2022-09-28T16:56:37.176Z,57.61
2022-09-28T16:58:39.932Z,57.57
2022-09-28T17:00:43.773Z,58.04
2022-09-28T17:02:48.116Z,59.12
2022-09-28T17:04:51.271Z,59.74
2022-09-28T17:06:58.249Z,60.21
2022-09-28T17:09:06.671Z,61.21
2022-09-28T17:11:18.131Z,61.20
2022-09-28T17:13:31.455Z,60.71
2022-09-28T17:15:34.366Z,61.81
2022-09-28T17:17:40.964Z,61.41
2022-09-28T17:19:43.713Z,60.99
2022-09-28T17:21:49.550Z,61.52
2022-09-28T17:23:53.764Z,61.63
2022-09-28T17:25:56.881Z,62.24
2022-09-28T17:27:59.861Z,62.30
2022-09-28T17:30:02.615Z,62.43
2022-09-28T17:32:10.106Z,62.67
2022-09-28T17:34:15.174Z,62.75
2022-09-28T17:36:19.353Z,62.05
2022-09-28T17:38:22.061Z,61.63
2022-09-28T17:40:28.280Z,61.54
2022-09-28T17:42:31.153Z,61.35
2022-09-28T17:44:33.943Z,61.15
2022-09-28T17:46:38.834Z,60.75
2022-09-28T17:48:45.910Z,60.68
2022-09-28T17:50:48.678Z,60.08
2022-09-28T17:52:53.013Z,60.00
2022-09-28T17:54:55.815Z,59.62
2022-09-28T17:57:00.020Z,59.24
2022-09-28T17:59:04.939Z,60.07
2022-09-28T18:01:07.828Z,62.38
2022-09-28T18:03:15.226Z,63.37
2022-09-28T18:05:19.538Z,62.96
2022-09-28T18:07:22.368Z,63.29
2022-09-28T18:09:25.670Z,62.02
2022-09-28T18:11:28.688Z,61.73
2022-09-28T18:13:33.118Z,62.18
2022-09-28T18:15:36.175Z,62.99
2022-09-28T18:17:39.487Z,63.31
2022-09-28T18:19:42.223Z,62.88
2022-09-28T18:21:44.990Z,62.24
2022-09-28T18:23:47.752Z,62.97
2022-09-28T18:25:50.559Z,63.36
2022-09-28T18:27:57.187Z,63.55
2022-09-28T18:30:01.532Z,64.50
2022-09-28T18:32:04.623Z,65.00
2022-09-28T18:34:07.410Z,64.79
2022-09-28T18:36:10.371Z,64.41
2022-09-28T18:38:13.168Z,64.75
2022-09-28T18:40:15.965Z,64.56
2022-09-28T18:42:19.247Z,64.32
2022-09-28T18:44:22.313Z,64.81
2022-09-28T18:46:27.715Z,64.87
2022-09-28T18:48:30.715Z,65.21
2022-09-28T18:50:34.319Z,65.66
2022-09-28T18:52:37.591Z,65.73
2022-09-28T18:54:41.489Z,65.87
2022-09-28T18:56:44.339Z,65.90
2022-09-28T18:58:48.135Z,66.45
2022-09-28T19:00:50.961Z,67.01
2022-09-28T19:02:55.183Z,66.84
2022-09-28T19:04:58.259Z,66.91
2022-09-28T19:07:01.022Z,66.99
2022-09-28T19:09:03.805Z,67.46
2022-09-28T19:11:08.265Z,67.02
2022-09-28T19:13:11.017Z,67.25
2022-09-28T19:15:13.929Z,67.34
2022-09-28T19:17:18.024Z,67.78
2022-09-28T19:19:22.173Z,67.78
2022-09-28T19:21:25.467Z,67.75
2022-09-28T19:23:28.239Z,68.18
2022-09-28T19:25:31.003Z,68.09
2022-09-28T19:27:33.797Z,68.46
2022-09-28T19:29:36.551Z,68.52
2022-09-28T19:31:39.748Z,68.40
2022-09-28T19:33:43.694Z,68.25
2022-09-28T19:35:55.781Z,68.61
2022-09-28T19:37:58.547Z,68.53
2022-09-28T19:40:01.858Z,69.04
2022-09-28T19:42:04.876Z,68.51
2022-09-28T19:44:09.705Z,68.48
2022-09-28T19:46:13.125Z,68.27
2022-09-28T19:48:15.877Z,68.64
2022-09-28T19:50:18.794Z,68.01
2022-09-28T19:52:22.854Z,68.40
2022-09-28T19:54:30.991Z,68.09
2022-09-28T19:56:36.073Z,68.12
2022-09-28T19:58:38.825Z,68.98
2022-09-28T20:00:41.653Z,68.95
2022-09-28T20:02:44.479Z,69.00
2022-09-28T20:04:47.735Z,69.32
2022-09-28T20:06:52.330Z,69.80
2022-09-28T20:08:58.250Z,69.75
2022-09-28T20:11:01.602Z,70.12
2022-09-28T20:13:05.363Z,70.56
2022-09-28T20:15:10.511Z,69.92
2022-09-28T20:17:14.419Z,70.17
2022-09-28T20:19:19.360Z,70.19
2022-09-28T20:21:26.502Z,69.75
2022-09-28T20:23:29.753Z,69.64
2022-09-28T20:25:34.005Z,69.87
2022-09-28T20:27:36.868Z,70.01
2022-09-28T20:29:39.633Z,69.59
2022-09-28T20:31:43.133Z,68.94
2022-09-28T20:33:45.968Z,69.10
2022-09-28T20:35:48.724Z,68.36
2022-09-28T20:37:52.188Z,68.03
2022-09-28T20:39:55.220Z,68.53
2022-09-28T20:41:59.303Z,67.71
2022-09-28T20:44:05.361Z,68.29
2022-09-28T20:46:11.191Z,68.26
2022-09-28T20:48:13.992Z,67.92
2022-09-28T20:50:16.846Z,68.60
2022-09-28T20:52:19.759Z,68.29
2022-09-28T20:54:22.564Z,68.38
2022-09-28T20:56:26.782Z,67.44
2022-09-28T20:58:31.021Z,68.36
2022-09-28T21:00:34.316Z,68.45
2022-09-28T21:02:37.063Z,67.85
2022-09-28T21:04:40.155Z,67.90
2022-09-28T21:06:43.476Z,68.38
2022-09-28T21:08:47.035Z,68.19
2022-09-28T21:10:52.711Z,67.89
2022-09-28T21:12:55.463Z,68.42
2022-09-28T21:15:04.884Z,68.55
2022-09-28T21:17:08.716Z,68.26
2022-09-28T21:19:11.469Z,67.98
2022-09-28T21:21:15.560Z,68.38
2022-09-28T21:23:23.964Z,68.44
2022-09-28T21:25:27.671Z,68.46
2022-09-28T21:27:31.592Z,68.67
2022-09-28T21:29:34.366Z,68.65
2022-09-28T21:31:41.207Z,68.43
2022-09-28T21:33:43.965Z,68.52
2022-09-28T21:35:47.040Z,68.43
2022-09-28T21:37:49.956Z,68.36
2022-09-28T21:39:52.909Z,68.52
2022-09-28T21:41:55.703Z,69.40
2022-09-28T21:43:58.800Z,68.78
2022-09-28T21:46:01.638Z,69.45
2022-09-28T21:48:06.210Z,69.35
2022-09-28T21:50:09.843Z,69.71
2022-09-28T21:52:12.745Z,69.98
2022-09-28T21:54:15.741Z,70.59
2022-09-28T21:56:18.872Z,69.76
2022-09-28T21:58:23.396Z,70.19
2022-09-28T22:00:26.305Z,70.16
2022-09-28T22:02:29.869Z,70.26
2022-09-28T22:04:34.168Z,70.39
2022-09-28T22:06:36.973Z,70.96
2022-09-28T22:08:42.826Z,70.74
2022-09-28T22:10:45.759Z,71.07
2022-09-28T22:12:50.169Z,71.22
2022-09-28T22:14:53.235Z,71.19
2022-09-28T22:16:56.129Z,70.84
2022-09-28T22:18:59.357Z,71.29
2022-09-28T22:21:06.445Z,70.73
2022-09-28T22:23:09.359Z,71.37
2022-09-28T22:25:12.170Z,71.44
2022-09-28T22:27:16.450Z,71.11
2022-09-28T22:29:21.557Z,70.97
2022-09-28T22:31:27.127Z,70.97
2022-09-28T22:33:30.018Z,71.92
2022-09-28T22:35:32.885Z,71.88
2022-09-28T22:37:37.185Z,71.42
2022-09-28T22:39:41.102Z,72.08
2022-09-28T22:41:44.135Z,71.93
2022-09-28T22:43:47.854Z,72.25
2022-09-28T22:45:51.114Z,72.09
2022-09-28T22:47:54.087Z,72.64
2022-09-28T22:49:58.288Z,72.58
2022-09-28T22:52:01.469Z,72.81
2022-09-28T22:54:06.660Z,72.26
2022-09-28T22:56:12.591Z,72.31
2022-09-28T22:58:18.970Z,72.59
2022-09-28T23:00:22.002Z,72.76
2022-09-28T23:02:24.915Z,73.10
2022-09-28T23:04:27.903Z,73.21
2022-09-28T23:06:31.250Z,72.80
2022-09-28T23:08:34.467Z,72.85
2022-09-28T23:10:38.743Z,73.08
2022-09-28T23:12:41.871Z,72.63
2022-09-28T23:14:44.629Z,73.12
2022-09-28T23:16:47.648Z,72.65
2022-09-28T23:18:50.735Z,73.62
2022-09-28T23:20:54.756Z,73.18
2022-09-28T23:22:57.795Z,73.77
2022-09-28T23:25:00.690Z,73.95
2022-09-28T23:27:07.148Z,73.84
2022-09-28T23:29:12.084Z,73.84
2022-09-28T23:31:16.063Z,73.90
2022-09-28T23:33:20.827Z,73.64
2022-09-28T23:35:23.781Z,74.29
2022-09-28T23:37:26.739Z,74.19
2022-09-28T23:39:29.596Z,73.71
2022-09-28T23:41:32.464Z,73.49
2022-09-28T23:43:37.172Z,74.39
2022-09-28T23:45:42.230Z,73.86
2022-09-28T23:47:45.078Z,74.17
2022-09-28T23:49:47.965Z,73.78
2022-09-28T23:51:51.067Z,74.16
2022-09-28T23:53:54.091Z,74.07
2022-09-28T23:55:56.979Z,73.87
2022-09-28T23:57:59.836Z,74.29
